sensor_id;sensor_type;location;lat;lon;timestamp;temperature;humidity
68801;SHT31;55784;50.734;7.086;2023-03-01T00:01:04;-0.49;76.40
68801;SHT31;55784;50.734;7.086;2023-03-01T00:03:30;-0.50;76.49
68801;SHT31;55784;50.734;7.086;2023-03-01T00:05:55;-0.60;76.81
68801;SHT31;55784;50.734;7.086;2023-03-01T00:08:20;-0.60;77.01
68801;SHT31;55784;50.734;7.086;2023-03-01T00:10:46;-0.73;77.13
68801;SHT31;55784;50.734;7.086;2023-03-01T00:13:11;-0.83;77.25
68801;SHT31;55784;50.734;7.086;2023-03-01T00:15:40;-0.87;77.51
68801;SHT31;55784;50.734;7.086;2023-03-01T00:18:07;-0.97;77.82
68801;SHT31;55784;50.734;7.086;2023-03-01T00:20:33;-0.94;78.16
68801;SHT31;55784;50.734;7.086;2023-03-01T00:22:59;-0.94;79.18
68801;SHT31;55784;50.734;7.086;2023-03-01T00:25:24;-1.04;79.37
68801;SHT31;55784;50.734;7.086;2023-03-01T00:27:49;-1.12;79.59
68801;SHT31;55784;50.734;7.086;2023-03-01T00:30:15;-1.14;79.93
68801;SHT31;55784;50.734;7.086;2023-03-01T00:32:40;-1.18;80.23
68801;SHT31;55784;50.734;7.086;2023-03-01T00:35:06;-1.22;80.28
68801;SHT31;55784;50.734;7.086;2023-03-01T00:37:31;-1.25;80.07
68801;SHT31;55784;50.734;7.086;2023-03-01T00:39:56;-1.18;79.91
68801;SHT31;55784;50.734;7.086;2023-03-01T00:42:22;-1.09;79.38
68801;SHT31;55784;50.734;7.086;2023-03-01T00:44:47;-1.07;79.37
68801;SHT31;55784;50.734;7.086;2023-03-01T00:47:12;-1.05;79.22
68801;SHT31;55784;50.734;7.086;2023-03-01T00:49:39;-1.05;79.57
68801;SHT31;55784;50.734;7.086;2023-03-01T00:52:04;-1.09;79.69
68801;SHT31;55784;50.734;7.086;2023-03-01T00:54:29;-1.24;80.00
68801;SHT31;55784;50.734;7.086;2023-03-01T00:56:55;-1.27;80.19
68801;SHT31;55784;50.734;7.086;2023-03-01T00:59:20;-1.28;80.22
68801;SHT31;55784;50.734;7.086;2023-03-01T01:01:45;-1.31;80.39
68801;SHT31;55784;50.734;7.086;2023-03-01T01:04:13;-1.34;80.46
68801;SHT31;55784;50.734;7.086;2023-03-01T01:06:44;-1.39;80.47
68801;SHT31;55784;50.734;7.086;2023-03-01T01:09:15;-1.47;80.78
68801;SHT31;55784;50.734;7.086;2023-03-01T01:11:46;-1.41;80.76
68801;SHT31;55784;50.734;7.086;2023-03-01T01:14:12;-1.34;80.17
68801;SHT31;55784;50.734;7.086;2023-03-01T01:16:37;-1.39;80.18
68801;SHT31;55784;50.734;7.086;2023-03-01T01:19:03;-1.45;80.22
68801;SHT31;55784;50.734;7.086;2023-03-01T01:21:29;-1.47;80.36
68801;SHT31;55784;50.734;7.086;2023-03-01T01:23:55;-1.39;80.13
68801;SHT31;55784;50.734;7.086;2023-03-01T01:26:26;-1.42;80.15
68801;SHT31;55784;50.734;7.086;2023-03-01T01:28:52;-1.38;80.00
68801;SHT31;55784;50.734;7.086;2023-03-01T01:31:19;-1.38;80.00
68801;SHT31;55784;50.734;7.086;2023-03-01T01:33:45;-1.37;80.03
68801;SHT31;55784;50.734;7.086;2023-03-01T01:36:10;-1.35;79.95
68801;SHT31;55784;50.734;7.086;2023-03-01T01:38:37;-1.41;79.99
68801;SHT31;55784;50.734;7.086;2023-03-01T01:41:03;-1.38;80.11
68801;SHT31;55784;50.734;7.086;2023-03-01T01:43:33;-1.38;80.12
68801;SHT31;55784;50.734;7.086;2023-03-01T01:46:28;-1.45;80.16
68801;SHT31;55784;50.734;7.086;2023-03-01T01:51:45;-1.59;81.26
68801;SHT31;55784;50.734;7.086;2023-03-01T01:54:30;-1.63;81.43
68801;SHT31;55784;50.734;7.086;2023-03-01T01:57:01;-1.65;81.85
68801;SHT31;55784;50.734;7.086;2023-03-01T01:59:29;-1.69;81.32
68801;SHT31;55784;50.734;7.086;2023-03-01T02:01:58;-1.69;81.90
68801;SHT31;55784;50.734;7.086;2023-03-01T02:04:24;-1.75;82.44
68801;SHT31;55784;50.734;7.086;2023-03-01T02:07:15;-1.66;81.78
68801;SHT31;55784;50.734;7.086;2023-03-01T02:09:43;-1.59;81.08
68801;SHT31;55784;50.734;7.086;2023-03-01T02:12:09;-1.54;80.96
68801;SHT31;55784;50.734;7.086;2023-03-01T02:14:35;-1.48;80.97
68801;SHT31;55784;50.734;7.086;2023-03-01T02:17:00;-1.52;80.85
68801;SHT31;55784;50.734;7.086;2023-03-01T02:22:04;-1.62;81.37
68801;SHT31;55784;50.734;7.086;2023-03-01T02:24:40;-1.66;81.58
68801;SHT31;55784;50.734;7.086;2023-03-01T02:27:09;-1.70;81.68
68801;SHT31;55784;50.734;7.086;2023-03-01T02:29:35;-1.72;81.84
68801;SHT31;55784;50.734;7.086;2023-03-01T02:32:02;-1.72;82.04
68801;SHT31;55784;50.734;7.086;2023-03-01T02:34:30;-1.79;82.21
68801;SHT31;55784;50.734;7.086;2023-03-01T02:37:01;-1.85;82.49
68801;SHT31;55784;50.734;7.086;2023-03-01T02:39:59;-1.90;82.87
68801;SHT31;55784;50.734;7.086;2023-03-01T02:42:38;-1.90;82.91
68801;SHT31;55784;50.734;7.086;2023-03-01T02:45:06;-1.94;82.91
68801;SHT31;55784;50.734;7.086;2023-03-01T02:47:31;-2.07;83.25
68801;SHT31;55784;50.734;7.086;2023-03-01T02:49:56;-2.15;83.64
68801;SHT31;55784;50.734;7.086;2023-03-01T02:52:43;-2.20;83.78
68801;SHT31;55784;50.734;7.086;2023-03-01T02:55:14;-2.27;84.21
68801;SHT31;55784;50.734;7.086;2023-03-01T02:57:43;-2.26;84.34
68801;SHT31;55784;50.734;7.086;2023-03-01T03:00:18;-2.30;84.42
68801;SHT31;55784;50.734;7.086;2023-03-01T03:02:45;-2.31;84.46
68801;SHT31;55784;50.734;7.086;2023-03-01T03:05:13;-2.19;84.13
68801;SHT31;55784;50.734;7.086;2023-03-01T03:07:42;-2.29;84.18
68801;SHT31;55784;50.734;7.086;2023-03-01T03:10:16;-2.30;84.16
68801;SHT31;55784;50.734;7.086;2023-03-01T03:12:42;-2.41;84.12
68801;SHT31;55784;50.734;7.086;2023-03-01T03:15:09;-2.43;84.47
68801;SHT31;55784;50.734;7.086;2023-03-01T03:17:40;-2.50;84.51
68801;SHT31;55784;50.734;7.086;2023-03-01T03:20:08;-2.55;84.67
68801;SHT31;55784;50.734;7.086;2023-03-01T03:22:38;-2.55;84.86
68801;SHT31;55784;50.734;7.086;2023-03-01T03:25:05;-2.48;85.02
68801;SHT31;55784;50.734;7.086;2023-03-01T03:27:34;-2.30;84.51
68801;SHT31;55784;50.734;7.086;2023-03-01T03:29:59;-2.27;84.29
68801;SHT31;55784;50.734;7.086;2023-03-01T03:32:24;-2.26;84.09
68801;SHT31;55784;50.734;7.086;2023-03-01T03:34:50;-2.29;84.25
68801;SHT31;55784;50.734;7.086;2023-03-01T03:37:15;-2.33;84.30
68801;SHT31;55784;50.734;7.086;2023-03-01T03:39:59;-2.38;84.64
68801;SHT31;55784;50.734;7.086;2023-03-01T03:42:24;-2.43;84.84
68801;SHT31;55784;50.734;7.086;2023-03-01T03:44:49;-2.50;84.89
68801;SHT31;55784;50.734;7.086;2023-03-01T03:47:15;-2.61;84.93
68801;SHT31;55784;50.734;7.086;2023-03-01T03:49:40;-2.66;85.27
68801;SHT31;55784;50.734;7.086;2023-03-01T03:52:05;-2.75;85.56
68801;SHT31;55784;50.734;7.086;2023-03-01T03:54:39;-2.69;85.68
68801;SHT31;55784;50.734;7.086;2023-03-01T03:57:04;-2.75;85.66
68801;SHT31;55784;50.734;7.086;2023-03-01T03:59:29;-2.79;85.67
68801;SHT31;55784;50.734;7.086;2023-03-01T04:01:55;-2.88;85.76
68801;SHT31;55784;50.734;7.086;2023-03-01T04:04:21;-2.91;85.94
68801;SHT31;55784;50.734;7.086;2023-03-01T04:06:47;-2.86;86.37
68801;SHT31;55784;50.734;7.086;2023-03-01T04:09:13;-2.88;86.48
68801;SHT31;55784;50.734;7.086;2023-03-01T04:11:38;-2.91;86.51
68801;SHT31;55784;50.734;7.086;2023-03-01T04:14:04;-2.95;86.60
68801;SHT31;55784;50.734;7.086;2023-03-01T04:16:29;-2.95;86.83
68801;SHT31;55784;50.734;7.086;2023-03-01T04:18:54;-2.99;86.80
68801;SHT31;55784;50.734;7.086;2023-03-01T04:21:20;-2.95;86.89
68801;SHT31;55784;50.734;7.086;2023-03-01T04:23:46;-2.98;86.98
68801;SHT31;55784;50.734;7.086;2023-03-01T04:26:11;-2.92;87.06
68801;SHT31;55784;50.734;7.086;2023-03-01T04:28:40;-2.98;86.97
68801;SHT31;55784;50.734;7.086;2023-03-01T04:31:14;-2.98;86.90
68801;SHT31;55784;50.734;7.086;2023-03-01T04:33:52;-2.99;87.11
68801;SHT31;55784;50.734;7.086;2023-03-01T04:36:19;-3.02;87.18
68801;SHT31;55784;50.734;7.086;2023-03-01T04:38:45;-3.00;87.23
68801;SHT31;55784;50.734;7.086;2023-03-01T04:41:16;-3.06;87.19
68801;SHT31;55784;50.734;7.086;2023-03-01T04:43:41;-3.03;87.79
68801;SHT31;55784;50.734;7.086;2023-03-01T04:46:09;-3.02;87.92
68801;SHT31;55784;50.734;7.086;2023-03-01T04:48:37;-3.00;87.84
68801;SHT31;55784;50.734;7.086;2023-03-01T04:51:03;-3.00;87.68
68801;SHT31;55784;50.734;7.086;2023-03-01T04:53:29;-2.96;87.59
68801;SHT31;55784;50.734;7.086;2023-03-01T04:55:55;-2.99;87.61
68801;SHT31;55784;50.734;7.086;2023-03-01T04:58:25;-3.05;87.78
68801;SHT31;55784;50.734;7.086;2023-03-01T05:00:51;-3.12;87.94
68801;SHT31;55784;50.734;7.086;2023-03-01T05:03:17;-3.21;87.87
68801;SHT31;55784;50.734;7.086;2023-03-01T05:05:44;-3.16;88.03
68801;SHT31;55784;50.734;7.086;2023-03-01T05:08:10;-3.12;88.01
68801;SHT31;55784;50.734;7.086;2023-03-01T05:10:43;-3.13;87.79
68801;SHT31;55784;50.734;7.086;2023-03-01T05:13:08;-3.20;88.04
68801;SHT31;55784;50.734;7.086;2023-03-01T05:15:34;-3.24;88.38
68801;SHT31;55784;50.734;7.086;2023-03-01T05:18:01;-3.24;88.31
68801;SHT31;55784;50.734;7.086;2023-03-01T05:20:29;-3.29;88.42
68801;SHT31;55784;50.734;7.086;2023-03-01T05:22:57;-3.19;88.77
68801;SHT31;55784;50.734;7.086;2023-03-01T05:25:24;-3.21;88.57
68801;SHT31;55784;50.734;7.086;2023-03-01T05:27:50;-3.23;88.58
68801;SHT31;55784;50.734;7.086;2023-03-01T05:30:16;-3.21;88.62
68801;SHT31;55784;50.734;7.086;2023-03-01T05:32:44;-3.26;88.67
68801;SHT31;55784;50.734;7.086;2023-03-01T05:35:12;-3.33;88.52
68801;SHT31;55784;50.734;7.086;2023-03-01T05:37:45;-3.29;88.45
68801;SHT31;55784;50.734;7.086;2023-03-01T05:40:14;-3.35;88.50
68801;SHT31;55784;50.734;7.086;2023-03-01T05:42:43;-3.37;88.60
68801;SHT31;55784;50.734;7.086;2023-03-01T05:45:09;-3.40;88.66
68801;SHT31;55784;50.734;7.086;2023-03-01T05:47:35;-3.44;88.85
68801;SHT31;55784;50.734;7.086;2023-03-01T05:50:01;-3.42;88.93
68801;SHT31;55784;50.734;7.086;2023-03-01T05:52:26;-3.46;88.92
68801;SHT31;55784;50.734;7.086;2023-03-01T05:54:51;-3.49;89.20
68801;SHT31;55784;50.734;7.086;2023-03-01T05:57:18;-3.47;89.40
68801;SHT31;55784;50.734;7.086;2023-03-01T05:59:43;-3.46;89.65
68801;SHT31;55784;50.734;7.086;2023-03-01T06:02:09;-3.37;89.58
68801;SHT31;55784;50.734;7.086;2023-03-01T06:04:34;-3.29;89.44
68801;SHT31;55784;50.734;7.086;2023-03-01T06:06:59;-3.30;89.41
68801;SHT31;55784;50.734;7.086;2023-03-01T06:09:24;-3.30;89.24
68801;SHT31;55784;50.734;7.086;2023-03-01T06:11:52;-3.35;89.32
68801;SHT31;55784;50.734;7.086;2023-03-01T06:14:29;-3.32;89.29
68801;SHT31;55784;50.734;7.086;2023-03-01T06:24:44;-3.19;89.24
68801;SHT31;55784;50.734;7.086;2023-03-01T06:27:10;-3.16;89.06
68801;SHT31;55784;50.734;7.086;2023-03-01T06:29:37;-3.20;89.09
68801;SHT31;55784;50.734;7.086;2023-03-01T06:32:05;-3.26;88.86
68801;SHT31;55784;50.734;7.086;2023-03-01T06:34:35;-3.29;88.87
68801;SHT31;55784;50.734;7.086;2023-03-01T06:37:02;-3.32;88.86
68801;SHT31;55784;50.734;7.086;2023-03-01T06:39:31;-3.24;88.65
68801;SHT31;55784;50.734;7.086;2023-03-01T06:42:02;-3.19;88.52
68801;SHT31;55784;50.734;7.086;2023-03-01T06:44:28;-3.19;88.35
68801;SHT31;55784;50.734;7.086;2023-03-01T06:46:54;-3.20;88.43
68801;SHT31;55784;50.734;7.086;2023-03-01T06:49:19;-3.23;88.25
68801;SHT31;55784;50.734;7.086;2023-03-01T06:51:48;-3.23;88.14
68801;SHT31;55784;50.734;7.086;2023-03-01T06:54:13;-3.12;87.88
68801;SHT31;55784;50.734;7.086;2023-03-01T06:56:41;-3.16;87.89
68801;SHT31;55784;50.734;7.086;2023-03-01T06:59:25;-3.19;87.96
68801;SHT31;55784;50.734;7.086;2023-03-01T07:02:41;-3.19;88.11
68801;SHT31;55784;50.734;7.086;2023-03-01T07:05:20;-3.13;88.06
68801;SHT31;55784;50.734;7.086;2023-03-01T07:08:18;-3.02;88.12
68801;SHT31;55784;50.734;7.086;2023-03-01T07:11:11;-2.99;88.05
68801;SHT31;55784;50.734;7.086;2023-03-01T07:24:15;-2.61;86.93
68801;SHT31;55784;50.734;7.086;2023-03-01T07:26:41;-2.58;86.64
68801;SHT31;55784;50.734;7.086;2023-03-01T07:29:07;-2.55;86.66
68801;SHT31;55784;50.734;7.086;2023-03-01T07:31:36;-2.55;86.76
68801;SHT31;55784;50.734;7.086;2023-03-01T07:34:02;-2.44;86.42
68801;SHT31;55784;50.734;7.086;2023-03-01T07:36:28;-2.38;85.93
68801;SHT31;55784;50.734;7.086;2023-03-01T07:38:53;-2.31;85.69
68801;SHT31;55784;50.734;7.086;2023-03-01T07:41:21;-2.26;85.16
68801;SHT31;55784;50.734;7.086;2023-03-01T07:43:46;-2.21;84.79
68801;SHT31;55784;50.734;7.086;2023-03-01T07:46:17;-2.27;84.96
68801;SHT31;55784;50.734;7.086;2023-03-01T07:48:44;-2.21;85.03
68801;SHT31;55784;50.734;7.086;2023-03-01T07:51:10;-2.19;84.91
68801;SHT31;55784;50.734;7.086;2023-03-01T07:53:57;-2.15;84.71
68801;SHT31;55784;50.734;7.086;2023-03-01T07:56:49;-2.10;84.49
68801;SHT31;55784;50.734;7.086;2023-03-01T07:59:23;-2.03;84.36
68801;SHT31;55784;50.734;7.086;2023-03-01T08:02:12;-1.93;84.38
68801;SHT31;55784;50.734;7.086;2023-03-01T08:04:48;-1.79;83.96
68801;SHT31;55784;50.734;7.086;2023-03-01T08:07:14;-1.70;83.68
68801;SHT31;55784;50.734;7.086;2023-03-01T08:09:39;-1.68;83.31
68801;SHT31;55784;50.734;7.086;2023-03-01T08:12:07;-1.59;83.17
68801;SHT31;55784;50.734;7.086;2023-03-01T08:14:36;-1.51;82.82
68801;SHT31;55784;50.734;7.086;2023-03-01T08:17:07;-1.51;82.94
68801;SHT31;55784;50.734;7.086;2023-03-01T08:19:32;-1.41;82.78
68801;SHT31;55784;50.734;7.086;2023-03-01T08:22:02;-1.38;82.31
68801;SHT31;55784;50.734;7.086;2023-03-01T08:24:31;-1.35;82.14
68801;SHT31;55784;50.734;7.086;2023-03-01T08:26:56;-1.31;81.93
68801;SHT31;55784;50.734;7.086;2023-03-01T08:29:22;-1.24;81.50
68801;SHT31;55784;50.734;7.086;2023-03-01T08:45:29;-0.66;79.21
68801;SHT31;55784;50.734;7.086;2023-03-01T09:24:20;1.25;72.30
68801;SHT31;55784;50.734;7.086;2023-03-01T09:49:27;1.63;70.33
68801;SHT31;55784;50.734;7.086;2023-03-01T10:12:51;3.06;65.36
68801;SHT31;55784;50.734;7.086;2023-03-01T10:15:57;3.18;64.45
68801;SHT31;55784;50.734;7.086;2023-03-01T10:19:16;3.12;63.60
68801;SHT31;55784;50.734;7.086;2023-03-01T10:21:25;3.26;63.59
68801;SHT31;55784;50.734;7.086;2023-03-01T10:24:08;3.40;63.05
68801;SHT31;55784;50.734;7.086;2023-03-01T10:27:04;3.40;62.30
68801;SHT31;55784;50.734;7.086;2023-03-01T10:33:30;3.70;62.42
68801;SHT31;55784;50.734;7.086;2023-03-01T10:36:23;3.80;62.12
68801;SHT31;55784;50.734;7.086;2023-03-01T10:39:13;3.86;61.39
68801;SHT31;55784;50.734;7.086;2023-03-01T10:42:25;3.88;60.84
68801;SHT31;55784;50.734;7.086;2023-03-01T10:44:54;4.02;60.78
68801;SHT31;55784;50.734;7.086;2023-03-01T10:47:29;4.11;60.42
68801;SHT31;55784;50.734;7.086;2023-03-01T10:50:23;4.19;60.19
68801;SHT31;55784;50.734;7.086;2023-03-01T10:53:28;4.37;59.98
68801;SHT31;55784;50.734;7.086;2023-03-01T10:56:13;4.48;59.40
68801;SHT31;55784;50.734;7.086;2023-03-01T10:59:18;4.58;59.18
68801;SHT31;55784;50.734;7.086;2023-03-01T11:01:45;4.60;58.51
68801;SHT31;55784;50.734;7.086;2023-03-01T11:07:26;4.69;57.32
68801;SHT31;55784;50.734;7.086;2023-03-01T11:09:51;4.62;57.13
68801;SHT31;55784;50.734;7.086;2023-03-01T11:12:40;4.68;57.60
68801;SHT31;55784;50.734;7.086;2023-03-01T11:15:28;4.76;57.22
68801;SHT31;55784;50.734;7.086;2023-03-01T11:17:58;4.90;57.10
68801;SHT31;55784;50.734;7.086;2023-03-01T11:20:25;5.01;57.16
68801;SHT31;55784;50.734;7.086;2023-03-01T11:26:11;5.07;55.12
68801;SHT31;55784;50.734;7.086;2023-03-01T11:28:39;5.10;55.50
68801;SHT31;55784;50.734;7.086;2023-03-01T11:31:22;5.33;55.36
68801;SHT31;55784;50.734;7.086;2023-03-01T11:33:59;5.34;55.49
68801;SHT31;55784;50.734;7.086;2023-03-01T11:36:35;5.26;55.86
68801;SHT31;55784;50.734;7.086;2023-03-01T11:39:47;5.20;56.33
68801;SHT31;55784;50.734;7.086;2023-03-01T11:42:25;5.45;55.47
68801;SHT31;55784;50.734;7.086;2023-03-01T11:44:55;5.55;54.91
68801;SHT31;55784;50.734;7.086;2023-03-01T11:49:49;5.24;55.14
68801;SHT31;55784;50.734;7.086;2023-03-01T11:58:05;5.75;56.57
68801;SHT31;55784;50.734;7.086;2023-03-01T12:03:28;5.75;54.39
68801;SHT31;55784;50.734;7.086;2023-03-01T12:11:39;5.84;52.95
68801;SHT31;55784;50.734;7.086;2023-03-01T12:14:20;5.72;53.37
68801;SHT31;55784;50.734;7.086;2023-03-01T12:19:43;5.85;53.18
68801;SHT31;55784;50.734;7.086;2023-03-01T12:25:16;5.78;53.58
68801;SHT31;55784;50.734;7.086;2023-03-01T12:38:41;6.01;52.76
68801;SHT31;55784;50.734;7.086;2023-03-01T12:44:09;6.19;52.99
68801;SHT31;55784;50.734;7.086;2023-03-01T12:54:57;6.43;51.37
68801;SHT31;55784;50.734;7.086;2023-03-01T12:57:37;6.26;51.35
68801;SHT31;55784;50.734;7.086;2023-03-01T13:02:56;6.54;49.89
68801;SHT31;55784;50.734;7.086;2023-03-01T13:05:40;6.64;49.76
68801;SHT31;55784;50.734;7.086;2023-03-01T13:11:07;6.92;48.22
68801;SHT31;55784;50.734;7.086;2023-03-01T13:13:31;6.95;47.89
68801;SHT31;55784;50.734;7.086;2023-03-01T13:15:57;7.04;48.27
68801;SHT31;55784;50.734;7.086;2023-03-01T13:20:59;7.23;49.90
68801;SHT31;55784;50.734;7.086;2023-03-01T13:23:37;7.09;50.78
68801;SHT31;55784;50.734;7.086;2023-03-01T13:26:08;7.19;49.93
68801;SHT31;55784;50.734;7.086;2023-03-01T13:28:46;7.39;50.85
68801;SHT31;55784;50.734;7.086;2023-03-01T13:33:53;7.11;50.31
68801;SHT31;55784;50.734;7.086;2023-03-01T13:44:21;7.51;47.54
68801;SHT31;55784;50.734;7.086;2023-03-01T13:46:50;7.56;46.95
68801;SHT31;55784;50.734;7.086;2023-03-01T13:49:18;7.70;47.52
68801;SHT31;55784;50.734;7.086;2023-03-01T13:51:49;7.67;46.92
68801;SHT31;55784;50.734;7.086;2023-03-01T13:54:16;7.73;46.96
68801;SHT31;55784;50.734;7.086;2023-03-01T13:56:44;7.67;47.05
68801;SHT31;55784;50.734;7.086;2023-03-01T13:59:19;7.63;47.73
68801;SHT31;55784;50.734;7.086;2023-03-01T14:01:52;7.65;46.41
68801;SHT31;55784;50.734;7.086;2023-03-01T14:06:47;7.70;46.01
68801;SHT31;55784;50.734;7.086;2023-03-01T14:09:20;7.89;46.32
68801;SHT31;55784;50.734;7.086;2023-03-01T14:11:52;8.00;46.26
68801;SHT31;55784;50.734;7.086;2023-03-01T14:14:33;7.80;45.72
68801;SHT31;55784;50.734;7.086;2023-03-01T14:17:34;7.93;45.80
68801;SHT31;55784;50.734;7.086;2023-03-01T14:20:18;8.17;44.74
68801;SHT31;55784;50.734;7.086;2023-03-01T14:22:45;8.06;43.89
68801;SHT31;55784;50.734;7.086;2023-03-01T14:25:19;8.11;44.23
68801;SHT31;55784;50.734;7.086;2023-03-01T14:27:58;8.14;44.29
68801;SHT31;55784;50.734;7.086;2023-03-01T14:30:27;8.24;44.20
68801;SHT31;55784;50.734;7.086;2023-03-01T14:32:57;8.14;43.99
68801;SHT31;55784;50.734;7.086;2023-03-01T14:35:28;8.16;43.91
68801;SHT31;55784;50.734;7.086;2023-03-01T14:37:54;8.03;43.95
68801;SHT31;55784;50.734;7.086;2023-03-01T14:40:23;8.23;43.75
68801;SHT31;55784;50.734;7.086;2023-03-01T14:42:49;8.31;43.63
68801;SHT31;55784;50.734;7.086;2023-03-01T14:45:14;8.36;43.52
68801;SHT31;55784;50.734;7.086;2023-03-01T14:47:40;8.44;42.93
68801;SHT31;55784;50.734;7.086;2023-03-01T14:50:24;8.40;42.32
68801;SHT31;55784;50.734;7.086;2023-03-01T14:52:53;8.52;42.69
68801;SHT31;55784;50.734;7.086;2023-03-01T14:55:29;8.72;42.88
68801;SHT31;55784;50.734;7.086;2023-03-01T14:57:56;8.65;42.46
68801;SHT31;55784;50.734;7.086;2023-03-01T15:00:27;8.62;42.50
68801;SHT31;55784;50.734;7.086;2023-03-01T15:02:55;8.61;43.21
68801;SHT31;55784;50.734;7.086;2023-03-01T15:05:29;8.65;42.02
68801;SHT31;55784;50.734;7.086;2023-03-01T15:07:56;8.55;41.91
68801;SHT31;55784;50.734;7.086;2023-03-01T15:10:26;8.52;41.80
68801;SHT31;55784;50.734;7.086;2023-03-01T15:12:51;8.51;41.53
68801;SHT31;55784;50.734;7.086;2023-03-01T15:17:58;8.64;43.36
68801;SHT31;55784;50.734;7.086;2023-03-01T15:20:26;8.33;45.85
68801;SHT31;55784;50.734;7.086;2023-03-01T15:22:53;8.38;46.97
68801;SHT31;55784;50.734;7.086;2023-03-01T15:25:23;8.17;46.98
68801;SHT31;55784;50.734;7.086;2023-03-01T15:27:52;8.36;46.76
68801;SHT31;55784;50.734;7.086;2023-03-01T15:30:22;8.37;46.83
68801;SHT31;55784;50.734;7.086;2023-03-01T15:39:00;8.42;47.49
68801;SHT31;55784;50.734;7.086;2023-03-01T15:41:38;8.45;43.33
68801;SHT31;55784;50.734;7.086;2023-03-01T15:44:28;8.49;42.29
68801;SHT31;55784;50.734;7.086;2023-03-01T15:46:54;8.54;43.32
68801;SHT31;55784;50.734;7.086;2023-03-01T15:49:31;8.52;43.00
68801;SHT31;55784;50.734;7.086;2023-03-01T15:51:58;8.59;42.83
68801;SHT31;55784;50.734;7.086;2023-03-01T15:54:25;8.51;40.45
68801;SHT31;55784;50.734;7.086;2023-03-01T15:56:51;8.57;40.64
68801;SHT31;55784;50.734;7.086;2023-03-01T15:59:17;8.58;40.57
68801;SHT31;55784;50.734;7.086;2023-03-01T16:01:43;8.52;40.25
68801;SHT31;55784;50.734;7.086;2023-03-01T16:04:17;8.52;40.78
68801;SHT31;55784;50.734;7.086;2023-03-01T16:06:53;8.59;39.31
68801;SHT31;55784;50.734;7.086;2023-03-01T16:09:25;8.62;39.81
68801;SHT31;55784;50.734;7.086;2023-03-01T16:11:52;8.55;40.35
68801;SHT31;55784;50.734;7.086;2023-03-01T16:14:18;8.55;41.45
68801;SHT31;55784;50.734;7.086;2023-03-01T16:16:45;8.44;46.83
68801;SHT31;55784;50.734;7.086;2023-03-01T16:19:18;8.27;48.92
68801;SHT31;55784;50.734;7.086;2023-03-01T16:21:44;8.21;49.56
68801;SHT31;55784;50.734;7.086;2023-03-01T16:24:35;8.16;49.91
68801;SHT31;55784;50.734;7.086;2023-03-01T16:27:02;8.11;49.88
68801;SHT31;55784;50.734;7.086;2023-03-01T16:29:27;8.06;50.23
68801;SHT31;55784;50.734;7.086;2023-03-01T16:31:54;7.97;50.36
68801;SHT31;55784;50.734;7.086;2023-03-01T16:34:20;7.83;51.72
68801;SHT31;55784;50.734;7.086;2023-03-01T16:37:07;7.61;53.99
68801;SHT31;55784;50.734;7.086;2023-03-01T16:41:03;7.58;54.68
68801;SHT31;55784;50.734;7.086;2023-03-01T16:43:23;7.46;54.98
68801;SHT31;55784;50.734;7.086;2023-03-01T16:45:49;7.39;54.77
68801;SHT31;55784;50.734;7.086;2023-03-01T16:48:26;7.43;52.09
68801;SHT31;55784;50.734;7.086;2023-03-01T16:51:12;7.45;52.18
68801;SHT31;55784;50.734;7.086;2023-03-01T16:53:59;7.39;51.04
68801;SHT31;55784;50.734;7.086;2023-03-01T16:57:05;7.38;51.21
68801;SHT31;55784;50.734;7.086;2023-03-01T17:00:16;7.38;50.21
68801;SHT31;55784;50.734;7.086;2023-03-01T17:06:24;7.18;51.13
68801;SHT31;55784;50.734;7.086;2023-03-01T17:16:40;6.90;51.66
68801;SHT31;55784;50.734;7.086;2023-03-01T17:19:06;6.81;51.89
68801;SHT31;55784;50.734;7.086;2023-03-01T17:21:37;6.81;52.19
68801;SHT31;55784;50.734;7.086;2023-03-01T17:24:35;6.71;52.43
68801;SHT31;55784;50.734;7.086;2023-03-01T17:35:38;6.30;53.44
68801;SHT31;55784;50.734;7.086;2023-03-01T17:38:04;6.19;54.42
68801;SHT31;55784;50.734;7.086;2023-03-01T17:40:31;6.19;54.30
68801;SHT31;55784;50.734;7.086;2023-03-01T17:42:57;5.99;54.95
68801;SHT31;55784;50.734;7.086;2023-03-01T17:45:22;5.92;55.04
68801;SHT31;55784;50.734;7.086;2023-03-01T17:47:48;5.91;55.09
68801;SHT31;55784;50.734;7.086;2023-03-01T17:50:13;5.78;55.81
68801;SHT31;55784;50.734;7.086;2023-03-01T17:52:39;5.78;55.66
68801;SHT31;55784;50.734;7.086;2023-03-01T17:55:06;5.68;55.90
68801;SHT31;55784;50.734;7.086;2023-03-01T17:57:31;5.54;56.54
68801;SHT31;55784;50.734;7.086;2023-03-01T17:59:56;5.47;56.80
68801;SHT31;55784;50.734;7.086;2023-03-01T18:02:22;5.44;57.08
68801;SHT31;55784;50.734;7.086;2023-03-01T18:04:47;5.44;55.89
68801;SHT31;55784;50.734;7.086;2023-03-01T18:07:12;5.28;56.53
68801;SHT31;55784;50.734;7.086;2023-03-01T18:09:38;5.33;56.09
68801;SHT31;55784;50.734;7.086;2023-03-01T18:12:03;5.26;56.24
68801;SHT31;55784;50.734;7.086;2023-03-01T18:14:28;5.16;56.86
68801;SHT31;55784;50.734;7.086;2023-03-01T18:16:58;5.06;57.22
68801;SHT31;55784;50.734;7.086;2023-03-01T18:19:23;4.94;56.96
68801;SHT31;55784;50.734;7.086;2023-03-01T18:21:49;5.00;53.36
68801;SHT31;55784;50.734;7.086;2023-03-01T18:24:14;4.89;53.33
68801;SHT31;55784;50.734;7.086;2023-03-01T18:26:39;4.80;53.24
68801;SHT31;55784;50.734;7.086;2023-03-01T18:29:05;4.75;53.40
68801;SHT31;55784;50.734;7.086;2023-03-01T18:31:31;4.80;52.99
68801;SHT31;55784;50.734;7.086;2023-03-01T18:33:58;4.87;52.36
68801;SHT31;55784;50.734;7.086;2023-03-01T18:36:27;5.00;51.99
68801;SHT31;55784;50.734;7.086;2023-03-01T18:38:53;4.93;52.43
68801;SHT31;55784;50.734;7.086;2023-03-01T18:41:24;4.90;52.25
68801;SHT31;55784;50.734;7.086;2023-03-01T18:43:49;4.97;51.52
68801;SHT31;55784;50.734;7.086;2023-03-01T18:46:15;5.04;51.42
68801;SHT31;55784;50.734;7.086;2023-03-01T18:48:40;4.99;51.62
68801;SHT31;55784;50.734;7.086;2023-03-01T18:51:10;4.94;51.58
68801;SHT31;55784;50.734;7.086;2023-03-01T18:53:36;4.94;51.68
68801;SHT31;55784;50.734;7.086;2023-03-01T18:56:01;4.84;51.94
68801;SHT31;55784;50.734;7.086;2023-03-01T18:58:27;4.84;51.53
68801;SHT31;55784;50.734;7.086;2023-03-01T19:00:52;4.73;52.12
68801;SHT31;55784;50.734;7.086;2023-03-01T19:03:18;4.58;52.85
68801;SHT31;55784;50.734;7.086;2023-03-01T19:05:43;4.50;52.72
68801;SHT31;55784;50.734;7.086;2023-03-01T19:08:10;4.58;52.17
68801;SHT31;55784;50.734;7.086;2023-03-01T19:10:35;4.70;51.95
68801;SHT31;55784;50.734;7.086;2023-03-01T19:13:00;4.73;51.79
68801;SHT31;55784;50.734;7.086;2023-03-01T19:15:26;4.60;52.81
68801;SHT31;55784;50.734;7.086;2023-03-01T19:17:51;4.58;52.70
68801;SHT31;55784;50.734;7.086;2023-03-01T19:20:17;4.45;53.64
68801;SHT31;55784;50.734;7.086;2023-03-01T19:22:42;4.53;53.72
68801;SHT31;55784;50.734;7.086;2023-03-01T19:25:08;4.46;53.66
68801;SHT31;55784;50.734;7.086;2023-03-01T19:27:33;4.42;53.96
68801;SHT31;55784;50.734;7.086;2023-03-01T19:29:59;4.45;53.90
68801;SHT31;55784;50.734;7.086;2023-03-01T19:32:25;4.38;54.72
68801;SHT31;55784;50.734;7.086;2023-03-01T19:34:50;4.22;56.56
68801;SHT31;55784;50.734;7.086;2023-03-01T19:37:15;4.17;57.76
68801;SHT31;55784;50.734;7.086;2023-03-01T19:39:41;4.07;58.49
68801;SHT31;55784;50.734;7.086;2023-03-01T19:42:07;4.14;59.42